sensor_id;sensor_type;location;lat;lon;timestamp;temperature;humidity
5689;DHT22;2869;50.432;8.680;2023-03-24T00:01:33;12.00;99.90
5689;DHT22;2869;50.432;8.680;2023-03-24T00:04:00;11.90;99.90
5689;DHT22;2869;50.432;8.680;2023-03-24T00:06:27;11.90;99.90
5689;DHT22;2869;50.432;8.680;2023-03-24T00:08:53;11.80;99.90
5689;DHT22;2869;50.432;8.680;2023-03-24T00:11:20;11.80;99.90
5689;DHT22;2869;50.432;8.680;2023-03-24T00:13:48;11.80;99.90
5689;DHT22;2869;50.432;8.680;2023-03-24T00:16:15;11.80;99.90
5689;DHT22;2869;50.432;8.680;2023-03-24T00:18:44;11.80;99.90
5689;DHT22;2869;50.432;8.680;2023-03-24T00:21:14;11.70;99.90
5689;DHT22;2869;50.432;8.680;2023-03-24T00:23:42;11.70;99.90
5689;DHT22;2869;50.432;8.680;2023-03-24T00:26:12;11.70;99.90
5689;DHT22;2869;50.432;8.680;2023-03-24T00:28:41;11.70;99.90
5689;DHT22;2869;50.432;8.680;2023-03-24T00:31:09;11.70;99.90
5689;DHT22;2869;50.432;8.680;2023-03-24T00:33:39;11.70;99.90
5689;DHT22;2869;50.432;8.680;2023-03-24T00:36:08;11.70;99.90
5689;DHT22;2869;50.432;8.680;2023-03-24T00:38:38;11.70;99.90
5689;DHT22;2869;50.432;8.680;2023-03-24T00:41:06;11.60;99.90
5689;DHT22;2869;50.432;8.680;2023-03-24T00:43:33;11.50;99.90
5689;DHT22;2869;50.432;8.680;2023-03-24T00:46:03;11.50;99.90
5689;DHT22;2869;50.432;8.680;2023-03-24T00:48:31;11.40;99.90
5689;DHT22;2869;50.432;8.680;2023-03-24T00:51:00;11.40;99.90
5689;DHT22;2869;50.432;8.680;2023-03-24T00:53:28;11.30;99.90
5689;DHT22;2869;50.432;8.680;2023-03-24T00:55:55;11.30;99.90
5689;DHT22;2869;50.432;8.680;2023-03-24T00:58:22;11.30;99.90
5689;DHT22;2869;50.432;8.680;2023-03-24T01:00:51;11.30;99.90
5689;DHT22;2869;50.432;8.680;2023-03-24T01:03:20;11.20;99.90
5689;DHT22;2869;50.432;8.680;2023-03-24T01:05:52;11.20;99.90
5689;DHT22;2869;50.432;8.680;2023-03-24T01:08:22;11.20;99.90
5689;DHT22;2869;50.432;8.680;2023-03-24T01:10:50;11.10;99.90
5689;DHT22;2869;50.432;8.680;2023-03-24T01:13:18;11.10;99.90
5689;DHT22;2869;50.432;8.680;2023-03-24T01:15:45;11.10;99.90
5689;DHT22;2869;50.432;8.680;2023-03-24T01:18:12;11.10;99.90
5689;DHT22;2869;50.432;8.680;2023-03-24T01:20:39;11.00;99.90
5689;DHT22;2869;50.432;8.680;2023-03-24T01:23:12;11.00;99.90
5689;DHT22;2869;50.432;8.680;2023-03-24T01:25:40;10.90;99.90
5689;DHT22;2869;50.432;8.680;2023-03-24T01:28:10;10.90;99.90
5689;DHT22;2869;50.432;8.680;2023-03-24T01:30:36;10.80;99.90
5689;DHT22;2869;50.432;8.680;2023-03-24T01:33:03;10.80;99.90
5689;DHT22;2869;50.432;8.680;2023-03-24T01:35:31;10.80;99.90
5689;DHT22;2869;50.432;8.680;2023-03-24T01:37:58;10.80;99.90
5689;DHT22;2869;50.432;8.680;2023-03-24T01:40:28;10.80;99.90
5689;DHT22;2869;50.432;8.680;2023-03-24T01:42:56;10.80;99.90
5689;DHT22;2869;50.432;8.680;2023-03-24T01:46:05;10.80;99.90
5689;DHT22;2869;50.432;8.680;2023-03-24T01:48:35;10.80;99.90
5689;DHT22;2869;50.432;8.680;2023-03-24T01:51:07;10.80;99.90
5689;DHT22;2869;50.432;8.680;2023-03-24T01:53:37;10.80;99.90
5689;DHT22;2869;50.432;8.680;2023-03-24T01:56:07;10.80;99.90
5689;DHT22;2869;50.432;8.680;2023-03-24T01:58:37;10.70;99.90
5689;DHT22;2869;50.432;8.680;2023-03-24T02:01:06;10.70;99.90
5689;DHT22;2869;50.432;8.680;2023-03-24T02:03:33;10.70;99.90
5689;DHT22;2869;50.432;8.680;2023-03-24T02:06:05;10.70;99.90
5689;DHT22;2869;50.432;8.680;2023-03-24T02:08:36;10.70;99.90
5689;DHT22;2869;50.432;8.680;2023-03-24T02:11:05;10.70;99.90
5689;DHT22;2869;50.432;8.680;2023-03-24T02:13:33;10.80;99.90
5689;DHT22;2869;50.432;8.680;2023-03-24T02:16:09;10.90;99.90
5689;DHT22;2869;50.432;8.680;2023-03-24T02:18:47;11.00;99.90
5689;DHT22;2869;50.432;8.680;2023-03-24T02:21:37;11.20;99.90
5689;DHT22;2869;50.432;8.680;2023-03-24T02:27:28;11.40;99.90
5689;DHT22;2869;50.432;8.680;2023-03-24T02:33:31;11.60;99.90
5689;DHT22;2869;50.432;8.680;2023-03-24T02:36:27;11.60;99.90
5689;DHT22;2869;50.432;8.680;2023-03-24T02:39:23;11.60;99.90
5689;DHT22;2869;50.432;8.680;2023-03-24T02:41:55;11.60;99.90
5689;DHT22;2869;50.432;8.680;2023-03-24T02:44:30;11.70;99.90
5689;DHT22;2869;50.432;8.680;2023-03-24T02:47:03;11.70;99.90
5689;DHT22;2869;50.432;8.680;2023-03-24T02:49:41;11.80;99.90
5689;DHT22;2869;50.432;8.680;2023-03-24T02:52:16;11.80;99.90
5689;DHT22;2869;50.432;8.680;2023-03-24T02:54:48;11.90;99.90
5689;DHT22;2869;50.432;8.680;2023-03-24T02:57:20;11.90;99.90
5689;DHT22;2869;50.432;8.680;2023-03-24T02:59:52;11.90;99.90
5689;DHT22;2869;50.432;8.680;2023-03-24T03:02:24;12.00;99.90
5689;DHT22;2869;50.432;8.680;2023-03-24T03:04:54;12.00;99.90
5689;DHT22;2869;50.432;8.680;2023-03-24T03:07:24;11.90;99.90
5689;DHT22;2869;50.432;8.680;2023-03-24T03:09:58;11.90;99.90
5689;DHT22;2869;50.432;8.680;2023-03-24T03:12:27;11.90;99.90
5689;DHT22;2869;50.432;8.680;2023-03-24T03:14:59;11.90;99.90
5689;DHT22;2869;50.432;8.680;2023-03-24T03:17:31;11.90;99.90
5689;DHT22;2869;50.432;8.680;2023-03-24T03:20:03;11.80;99.90
5689;DHT22;2869;50.432;8.680;2023-03-24T03:22:37;11.80;99.90
5689;DHT22;2869;50.432;8.680;2023-03-24T03:25:10;11.80;99.90
5689;DHT22;2869;50.432;8.680;2023-03-24T03:27:38;11.80;99.90
5689;DHT22;2869;50.432;8.680;2023-03-24T03:30:12;11.80;99.90
5689;DHT22;2869;50.432;8.680;2023-03-24T03:32:44;11.80;99.90
5689;DHT22;2869;50.432;8.680;2023-03-24T03:35:21;11.80;99.90
5689;DHT22;2869;50.432;8.680;2023-03-24T03:37:52;11.80;99.90
5689;DHT22;2869;50.432;8.680;2023-03-24T03:40:26;11.90;99.90
5689;DHT22;2869;50.432;8.680;2023-03-24T03:42:56;11.90;99.90
5689;DHT22;2869;50.432;8.680;2023-03-24T03:45:23;11.90;99.90
5689;DHT22;2869;50.432;8.680;2023-03-24T03:47:50;11.90;99.90
5689;DHT22;2869;50.432;8.680;2023-03-24T03:50:17;11.90;99.90
5689;DHT22;2869;50.432;8.680;2023-03-24T03:52:44;11.90;99.90
5689;DHT22;2869;50.432;8.680;2023-03-24T03:55:11;11.80;99.90
5689;DHT22;2869;50.432;8.680;2023-03-24T03:57:40;11.80;99.90
5689;DHT22;2869;50.432;8.680;2023-03-24T04:00:11;11.80;99.90
5689;DHT22;2869;50.432;8.680;2023-03-24T04:02:49;11.80;99.90
5689;DHT22;2869;50.432;8.680;2023-03-24T04:05:27;11.80;99.90
5689;DHT22;2869;50.432;8.680;2023-03-24T04:08:18;11.80;99.90
5689;DHT22;2869;50.432;8.680;2023-03-24T04:11:24;11.80;99.90
5689;DHT22;2869;50.432;8.680;2023-03-24T04:14:06;11.80;99.90
5689;DHT22;2869;50.432;8.680;2023-03-24T04:16:46;11.80;99.90
5689;DHT22;2869;50.432;8.680;2023-03-24T04:19:29;11.80;99.90
5689;DHT22;2869;50.432;8.680;2023-03-24T04:22:10;11.80;99.90
5689;DHT22;2869;50.432;8.680;2023-03-24T04:24:45;11.80;99.90
5689;DHT22;2869;50.432;8.680;2023-03-24T04:27:20;11.80;99.90
5689;DHT22;2869;50.432;8.680;2023-03-24T04:30:00;11.80;99.90
5689;DHT22;2869;50.432;8.680;2023-03-24T04:32:34;11.80;99.90
5689;DHT22;2869;50.432;8.680;2023-03-24T04:35:10;11.80;99.90
5689;DHT22;2869;50.432;8.680;2023-03-24T04:37:39;11.90;99.90
5689;DHT22;2869;50.432;8.680;2023-03-24T04:40:10;12.00;99.90
5689;DHT22;2869;50.432;8.680;2023-03-24T04:42:40;12.10;99.90
5689;DHT22;2869;50.432;8.680;2023-03-24T04:45:09;12.20;99.90
5689;DHT22;2869;50.432;8.680;2023-03-24T04:47:40;12.20;99.90
5689;DHT22;2869;50.432;8.680;2023-03-24T04:50:10;12.30;99.90
5689;DHT22;2869;50.432;8.680;2023-03-24T04:52:37;12.30;99.90
5689;DHT22;2869;50.432;8.680;2023-03-24T04:55:23;12.30;99.90
5689;DHT22;2869;50.432;8.680;2023-03-24T04:57:52;12.30;99.90
5689;DHT22;2869;50.432;8.680;2023-03-24T05:00:20;12.20;99.90
5689;DHT22;2869;50.432;8.680;2023-03-24T05:02:46;12.20;99.90
5689;DHT22;2869;50.432;8.680;2023-03-24T05:05:13;12.20;99.90
5689;DHT22;2869;50.432;8.680;2023-03-24T05:07:40;12.10;99.90
5689;DHT22;2869;50.432;8.680;2023-03-24T05:10:07;12.10;99.90
5689;DHT22;2869;50.432;8.680;2023-03-24T05:12:34;12.10;99.90
5689;DHT22;2869;50.432;8.680;2023-03-24T05:15:01;12.10;99.90
5689;DHT22;2869;50.432;8.680;2023-03-24T05:17:29;12.00;99.90
5689;DHT22;2869;50.432;8.680;2023-03-24T05:19:56;12.00;99.90
5689;DHT22;2869;50.432;8.680;2023-03-24T05:22:23;12.00;99.90
5689;DHT22;2869;50.432;8.680;2023-03-24T05:24:49;12.00;99.90
5689;DHT22;2869;50.432;8.680;2023-03-24T05:27:16;12.00;99.90
5689;DHT22;2869;50.432;8.680;2023-03-24T05:29:42;12.10;99.90
5689;DHT22;2869;50.432;8.680;2023-03-24T05:32:09;12.00;99.90
5689;DHT22;2869;50.432;8.680;2023-03-24T05:34:39;12.00;99.90
5689;DHT22;2869;50.432;8.680;2023-03-24T05:37:05;12.10;99.90
5689;DHT22;2869;50.432;8.680;2023-03-24T05:39:36;12.10;99.90
5689;DHT22;2869;50.432;8.680;2023-03-24T05:42:03;12.10;99.90
5689;DHT22;2869;50.432;8.680;2023-03-24T05:44:30;12.10;99.90
5689;DHT22;2869;50.432;8.680;2023-03-24T05:46:56;12.10;99.90
5689;DHT22;2869;50.432;8.680;2023-03-24T05:49:23;12.10;99.90
5689;DHT22;2869;50.432;8.680;2023-03-24T05:51:51;12.10;99.90
5689;DHT22;2869;50.432;8.680;2023-03-24T05:54:17;12.10;99.90
5689;DHT22;2869;50.432;8.680;2023-03-24T05:56:44;12.00;99.90
5689;DHT22;2869;50.432;8.680;2023-03-24T05:59:11;12.10;99.90
5689;DHT22;2869;50.432;8.680;2023-03-24T06:01:37;12.10;99.90
5689;DHT22;2869;50.432;8.680;2023-03-24T06:04:06;12.10;99.90
5689;DHT22;2869;50.432;8.680;2023-03-24T06:06:33;12.10;99.90
5689;DHT22;2869;50.432;8.680;2023-03-24T06:09:01;12.10;99.90
5689;DHT22;2869;50.432;8.680;2023-03-24T06:11:29;12.10;99.90
5689;DHT22;2869;50.432;8.680;2023-03-24T06:13:56;12.10;99.90
5689;DHT22;2869;50.432;8.680;2023-03-24T06:16:25;12.20;99.90
5689;DHT22;2869;50.432;8.680;2023-03-24T06:18:51;12.20;99.90
5689;DHT22;2869;50.432;8.680;2023-03-24T06:21:18;12.20;99.90
5689;DHT22;2869;50.432;8.680;2023-03-24T06:23:45;12.30;99.90
5689;DHT22;2869;50.432;8.680;2023-03-24T06:26:14;12.30;99.90
5689;DHT22;2869;50.432;8.680;2023-03-24T06:28:41;12.40;99.90
5689;DHT22;2869;50.432;8.680;2023-03-24T06:31:07;12.40;99.90
5689;DHT22;2869;50.432;8.680;2023-03-24T06:33:42;12.50;99.90
5689;DHT22;2869;50.432;8.680;2023-03-24T06:36:10;12.60;99.90
5689;DHT22;2869;50.432;8.680;2023-03-24T06:38:38;12.60;99.90
5689;DHT22;2869;50.432;8.680;2023-03-24T06:41:05;12.60;99.90
5689;DHT22;2869;50.432;8.680;2023-03-24T06:43:33;12.60;99.90
5689;DHT22;2869;50.432;8.680;2023-03-24T06:46:00;12.60;99.90
5689;DHT22;2869;50.432;8.680;2023-03-24T06:48:27;12.60;99.90
5689;DHT22;2869;50.432;8.680;2023-03-24T06:50:54;12.60;99.90
5689;DHT22;2869;50.432;8.680;2023-03-24T06:53:21;12.70;99.90
5689;DHT22;2869;50.432;8.680;2023-03-24T06:55:48;12.70;99.90
5689;DHT22;2869;50.432;8.680;2023-03-24T06:58:15;12.80;99.90
5689;DHT22;2869;50.432;8.680;2023-03-24T07:00:43;12.90;99.90
5689;DHT22;2869;50.432;8.680;2023-03-24T07:03:11;12.90;99.90
5689;DHT22;2869;50.432;8.680;2023-03-24T07:05:38;13.00;99.90
5689;DHT22;2869;50.432;8.680;2023-03-24T07:08:06;13.10;99.90
5689;DHT22;2869;50.432;8.680;2023-03-24T07:10:34;13.20;99.90
5689;DHT22;2869;50.432;8.680;2023-03-24T07:13:01;13.20;99.90
5689;DHT22;2869;50.432;8.680;2023-03-24T07:15:28;13.20;99.90
5689;DHT22;2869;50.432;8.680;2023-03-24T07:17:56;13.30;99.90
5689;DHT22;2869;50.432;8.680;2023-03-24T07:20:23;13.30;99.90
5689;DHT22;2869;50.432;8.680;2023-03-24T07:22:50;13.30;99.90
5689;DHT22;2869;50.432;8.680;2023-03-24T07:25:20;13.30;99.90
5689;DHT22;2869;50.432;8.680;2023-03-24T07:27:47;13.30;99.90
5689;DHT22;2869;50.432;8.680;2023-03-24T07:30:14;13.30;99.90
5689;DHT22;2869;50.432;8.680;2023-03-24T07:32:40;13.40;99.90
5689;DHT22;2869;50.432;8.680;2023-03-24T07:35:11;13.30;99.90
5689;DHT22;2869;50.432;8.680;2023-03-24T07:37:38;13.30;99.90
5689;DHT22;2869;50.432;8.680;2023-03-24T07:40:06;13.30;99.90
5689;DHT22;2869;50.432;8.680;2023-03-24T07:42:36;13.30;99.90
5689;DHT22;2869;50.432;8.680;2023-03-24T07:45:03;13.40;99.90
5689;DHT22;2869;50.432;8.680;2023-03-24T07:47:30;13.40;99.90
5689;DHT22;2869;50.432;8.680;2023-03-24T07:49:56;13.40;99.90
5689;DHT22;2869;50.432;8.680;2023-03-24T07:52:25;13.40;99.90
5689;DHT22;2869;50.432;8.680;2023-03-24T07:54:51;13.30;99.90
5689;DHT22;2869;50.432;8.680;2023-03-24T07:57:18;13.20;99.90
5689;DHT22;2869;50.432;8.680;2023-03-24T07:59:44;13.20;99.90
5689;DHT22;2869;50.432;8.680;2023-03-24T08:02:15;13.10;99.90
5689;DHT22;2869;50.432;8.680;2023-03-24T08:04:42;13.10;99.90
5689;DHT22;2869;50.432;8.680;2023-03-24T08:07:09;13.10;99.90
5689;DHT22;2869;50.432;8.680;2023-03-24T08:09:39;13.00;99.90
5689;DHT22;2869;50.432;8.680;2023-03-24T08:12:06;12.90;99.90
5689;DHT22;2869;50.432;8.680;2023-03-24T08:14:33;12.90;99.90
5689;DHT22;2869;50.432;8.680;2023-03-24T08:16:59;13.00;99.90
5689;DHT22;2869;50.432;8.680;2023-03-24T08:19:26;13.00;99.90
5689;DHT22;2869;50.432;8.680;2023-03-24T08:21:53;13.00;99.90
5689;DHT22;2869;50.432;8.680;2023-03-24T08:24:20;13.00;99.90
5689;DHT22;2869;50.432;8.680;2023-03-24T08:26:48;13.00;99.90
5689;DHT22;2869;50.432;8.680;2023-03-24T08:29:14;13.10;99.90
5689;DHT22;2869;50.432;8.680;2023-03-24T08:31:41;13.00;99.90
5689;DHT22;2869;50.432;8.680;2023-03-24T08:34:08;13.00;99.90
5689;DHT22;2869;50.432;8.680;2023-03-24T08:36:36;13.00;99.90
5689;DHT22;2869;50.432;8.680;2023-03-24T08:39:03;12.90;99.90
5689;DHT22;2869;50.432;8.680;2023-03-24T08:41:35;12.90;99.90
5689;DHT22;2869;50.432;8.680;2023-03-24T08:44:03;12.90;99.90
5689;DHT22;2869;50.432;8.680;2023-03-24T08:46:32;12.80;99.90
5689;DHT22;2869;50.432;8.680;2023-03-24T08:48:58;12.80;99.90
5689;DHT22;2869;50.432;8.680;2023-03-24T08:51:26;12.80;99.90
5689;DHT22;2869;50.432;8.680;2023-03-24T08:53:52;12.40;99.90
5689;DHT22;2869;50.432;8.680;2023-03-24T08:56:20;12.00;99.90
5689;DHT22;2869;50.432;8.680;2023-03-24T08:58:47;11.70;99.90
5689;DHT22;2869;50.432;8.680;2023-03-24T09:01:17;11.30;99.90
5689;DHT22;2869;50.432;8.680;2023-03-24T09:03:43;11.00;99.90
5689;DHT22;2869;50.432;8.680;2023-03-24T09:06:11;10.80;99.90
5689;DHT22;2869;50.432;8.680;2023-03-24T09:08:37;10.60;99.90
5689;DHT22;2869;50.432;8.680;2023-03-24T09:11:05;10.40;99.90
5689;DHT22;2869;50.432;8.680;2023-03-24T09:13:32;10.30;99.90
5689;DHT22;2869;50.432;8.680;2023-03-24T09:16:01;10.20;99.90
5689;DHT22;2869;50.432;8.680;2023-03-24T09:18:29;10.10;99.90
5689;DHT22;2869;50.432;8.680;2023-03-24T09:20:56;10.00;99.90
5689;DHT22;2869;50.432;8.680;2023-03-24T09:23:22;9.80;99.90
5689;DHT22;2869;50.432;8.680;2023-03-24T09:25:50;9.80;99.90
5689;DHT22;2869;50.432;8.680;2023-03-24T09:28:17;9.80;99.90
5689;DHT22;2869;50.432;8.680;2023-03-24T09:30:43;9.80;99.90
5689;DHT22;2869;50.432;8.680;2023-03-24T09:33:10;9.80;99.90
5689;DHT22;2869;50.432;8.680;2023-03-24T09:35:38;9.80;99.90
5689;DHT22;2869;50.432;8.680;2023-03-24T09:38:05;9.80;99.90
5689;DHT22;2869;50.432;8.680;2023-03-24T09:40:35;9.80;99.90
5689;DHT22;2869;50.432;8.680;2023-03-24T09:43:04;9.80;99.90
5689;DHT22;2869;50.432;8.680;2023-03-24T09:45:34;9.90;99.90
5689;DHT22;2869;50.432;8.680;2023-03-24T09:48:04;9.90;99.90
5689;DHT22;2869;50.432;8.680;2023-03-24T09:50:35;10.00;99.90
5689;DHT22;2869;50.432;8.680;2023-03-24T09:53:08;10.00;99.90
5689;DHT22;2869;50.432;8.680;2023-03-24T09:55:42;10.10;99.90
5689;DHT22;2869;50.432;8.680;2023-03-24T09:58:11;10.20;99.90
5689;DHT22;2869;50.432;8.680;2023-03-24T10:00:39;10.30;99.90
5689;DHT22;2869;50.432;8.680;2023-03-24T10:03:13;10.30;99.90
5689;DHT22;2869;50.432;8.680;2023-03-24T10:05:50;10.30;99.90
5689;DHT22;2869;50.432;8.680;2023-03-24T10:08:26;10.30;99.90
5689;DHT22;2869;50.432;8.680;2023-03-24T10:11:00;10.20;99.90
5689;DHT22;2869;50.432;8.680;2023-03-24T10:13:36;10.20;99.90
5689;DHT22;2869;50.432;8.680;2023-03-24T10:16:10;10.20;99.90
5689;DHT22;2869;50.432;8.680;2023-03-24T10:18:41;10.20;99.90
5689;DHT22;2869;50.432;8.680;2023-03-24T10:21:17;10.10;99.90
5689;DHT22;2869;50.432;8.680;2023-03-24T10:23:52;10.10;99.90
5689;DHT22;2869;50.432;8.680;2023-03-24T10:26:31;10.10;99.90
5689;DHT22;2869;50.432;8.680;2023-03-24T10:29:12;10.10;99.90
5689;DHT22;2869;50.432;8.680;2023-03-24T10:31:47;10.20;99.90
5689;DHT22;2869;50.432;8.680;2023-03-24T10:34:15;10.20;99.90
5689;DHT22;2869;50.432;8.680;2023-03-24T10:36:43;10.20;99.90
5689;DHT22;2869;50.432;8.680;2023-03-24T10:39:15;10.30;99.90
5689;DHT22;2869;50.432;8.680;2023-03-24T10:41:42;10.40;99.90
5689;DHT22;2869;50.432;8.680;2023-03-24T10:44:11;10.50;99.90
5689;DHT22;2869;50.432;8.680;2023-03-24T10:46:44;10.50;99.90
5689;DHT22;2869;50.432;8.680;2023-03-24T10:49:15;10.50;99.90
5689;DHT22;2869;50.432;8.680;2023-03-24T10:51:44;10.60;99.90
5689;DHT22;2869;50.432;8.680;2023-03-24T10:54:17;10.70;99.90
5689;DHT22;2869;50.432;8.680;2023-03-24T10:56:46;10.90;99.90
5689;DHT22;2869;50.432;8.680;2023-03-24T10:59:22;11.00;99.90
5689;DHT22;2869;50.432;8.680;2023-03-24T11:01:56;11.20;99.90
5689;DHT22;2869;50.432;8.680;2023-03-24T11:04:25;11.30;99.90
5689;DHT22;2869;50.432;8.680;2023-03-24T11:06:56;11.50;99.90
5689;DHT22;2869;50.432;8.680;2023-03-24T11:09:26;11.60;99.90
5689;DHT22;2869;50.432;8.680;2023-03-24T11:11:53;11.70;99.90
5689;DHT22;2869;50.432;8.680;2023-03-24T11:14:25;11.80;99.90
5689;DHT22;2869;50.432;8.680;2023-03-24T11:17:01;11.90;99.90
5689;DHT22;2869;50.432;8.680;2023-03-24T11:19:27;12.00;99.90
5689;DHT22;2869;50.432;8.680;2023-03-24T11:22:01;12.20;99.90
5689;DHT22;2869;50.432;8.680;2023-03-24T11:24:34;12.20;99.90
5689;DHT22;2869;50.432;8.680;2023-03-24T11:27:02;12.40;99.90
5689;DHT22;2869;50.432;8.680;2023-03-24T11:29:31;12.80;99.90
5689;DHT22;2869;50.432;8.680;2023-03-24T11:32:00;13.10;99.90
5689;DHT22;2869;50.432;8.680;2023-03-24T11:34:30;13.50;99.90
5689;DHT22;2869;50.432;8.680;2023-03-24T11:36:59;13.70;99.90
5689;DHT22;2869;50.432;8.680;2023-03-24T11:39:30;13.70;99.90
5689;DHT22;2869;50.432;8.680;2023-03-24T11:42:11;13.50;99.90
5689;DHT22;2869;50.432;8.680;2023-03-24T11:44:45;13.30;99.90
5689;DHT22;2869;50.432;8.680;2023-03-24T11:47:17;13.40;99.90
5689;DHT22;2869;50.432;8.680;2023-03-24T11:49:50;13.70;99.90
5689;DHT22;2869;50.432;8.680;2023-03-24T11:52:21;14.10;99.90
5689;DHT22;2869;50.432;8.680;2023-03-24T11:54:51;14.50;99.90
5689;DHT22;2869;50.432;8.680;2023-03-24T11:57:25;14.60;99.90
5689;DHT22;2869;50.432;8.680;2023-03-24T11:59:57;14.90;99.90
5689;DHT22;2869;50.432;8.680;2023-03-24T12:02:39;15.20;99.90
5689;DHT22;2869;50.432;8.680;2023-03-24T12:05:20;15.50;99.90
5689;DHT22;2869;50.432;8.680;2023-03-24T12:08:10;15.50;99.90
5689;DHT22;2869;50.432;8.680;2023-03-24T12:10:50;15.40;99.90
5689;DHT22;2869;50.432;8.680;2023-03-24T12:13:30;15.40;99.90
5689;DHT22;2869;50.432;8.680;2023-03-24T12:19:14;15.70;99.90
5689;DHT22;2869;50.432;8.680;2023-03-24T12:21:53;15.60;99.90
5689;DHT22;2869;50.432;8.680;2023-03-24T12:24:30;15.10;99.90
5689;DHT22;2869;50.432;8.680;2023-03-24T12:27:00;14.80;99.90
5689;DHT22;2869;50.432;8.680;2023-03-24T12:29:41;14.80;99.90
5689;DHT22;2869;50.432;8.680;2023-03-24T12:32:24;14.80;99.90
5689;DHT22;2869;50.432;8.680;2023-03-24T12:35:26;14.90;99.90
5689;DHT22;2869;50.432;8.680;2023-03-24T12:38:02;14.90;99.90
5689;DHT22;2869;50.432;8.680;2023-03-24T12:40:51;15.30;99.90
5689;DHT22;2869;50.432;8.680;2023-03-24T12:43:29;15.80;99.90
5689;DHT22;2869;50.432;8.680;2023-03-24T12:46:01;16.40;99.90
5689;DHT22;2869;50.432;8.680;2023-03-24T12:48:47;16.70;99.90
5689;DHT22;2869;50.432;8.680;2023-03-24T12:51:25;17.00;99.90
5689;DHT22;2869;50.432;8.680;2023-03-24T12:54:06;17.20;99.90
5689;DHT22;2869;50.432;8.680;2023-03-24T12:56:38;17.40;99.90
5689;DHT22;2869;50.432;8.680;2023-03-24T12:59:11;17.30;99.90
5689;DHT22;2869;50.432;8.680;2023-03-24T13:01:41;17.00;99.90
5689;DHT22;2869;50.432;8.680;2023-03-24T13:04:12;16.50;99.90
5689;DHT22;2869;50.432;8.680;2023-03-24T13:06:45;16.20;99.90
5689;DHT22;2869;50.432;8.680;2023-03-24T13:09:21;16.10;99.90
5689;DHT22;2869;50.432;8.680;2023-03-24T13:11:56;16.20;99.90
5689;DHT22;2869;50.432;8.680;2023-03-24T13:14:28;16.40;99.90
5689;DHT22;2869;50.432;8.680;2023-03-24T13:17:03;16.80;99.90
5689;DHT22;2869;50.432;8.680;2023-03-24T13:19:32;17.10;99.90
5689;DHT22;2869;50.432;8.680;2023-03-24T13:21:59;17.40;99.90
5689;DHT22;2869;50.432;8.680;2023-03-24T13:24:28;17.60;99.90
5689;DHT22;2869;50.432;8.680;2023-03-24T13:27:01;17.70;99.90
5689;DHT22;2869;50.432;8.680;2023-03-24T13:29:58;17.70;99.90
5689;DHT22;2869;50.432;8.680;2023-03-24T13:32:32;17.80;99.90
5689;DHT22;2869;50.432;8.680;2023-03-24T13:35:05;17.70;99.90
5689;DHT22;2869;50.432;8.680;2023-03-24T13:37:39;17.70;99.90
5689;DHT22;2869;50.432;8.680;2023-03-24T13:40:16;17.50;99.90
5689;DHT22;2869;50.432;8.680;2023-03-24T13:42:46;17.30;99.90
5689;DHT22;2869;50.432;8.680;2023-03-24T13:45:25;17.40;99.90
5689;DHT22;2869;50.432;8.680;2023-03-24T13:48:03;17.30;99.90
5689;DHT22;2869;50.432;8.680;2023-03-24T13:50:31;17.20;99.90
5689;DHT22;2869;50.432;8.680;2023-03-24T13:53:04;17.20;99.90
5689;DHT22;2869;50.432;8.680;2023-03-24T13:55:35;17.30;99.90
5689;DHT22;2869;50.432;8.680;2023-03-24T13:58:05;17.60;99.90
5689;DHT22;2869;50.432;8.680;2023-03-24T14:01:14;17.70;99.90
5689;DHT22;2869;50.432;8.680;2023-03-24T14:03:42;17.50;99.90
5689;DHT22;2869;50.432;8.680;2023-03-24T14:06:10;17.50;99.90
5689;DHT22;2869;50.432;8.680;2023-03-24T14:08:43;17.30;99.90
5689;DHT22;2869;50.432;8.680;2023-03-24T14:11:42;17.20;99.90
5689;DHT22;2869;50.432;8.680;2023-03-24T14:14:17;16.90;99.90
5689;DHT22;2869;50.432;8.680;2023-03-24T14:16:50;16.60;99.90
5689;DHT22;2869;50.432;8.680;2023-03-24T14:19:25;16.50;99.90
5689;DHT22;2869;50.432;8.680;2023-03-24T14:21:57;16.40;99.90
5689;DHT22;2869;50.432;8.680;2023-03-24T14:24:29;16.30;99.90
5689;DHT22;2869;50.432;8.680;2023-03-24T14:26:57;16.10;99.90
5689;DHT22;2869;50.432;8.680;2023-03-24T14:29:48;16.20;99.90
5689;DHT22;2869;50.432;8.680;2023-03-24T14:32:18;16.30;99.90
5689;DHT22;2869;50.432;8.680;2023-03-24T14:34:53;16.50;99.90
5689;DHT22;2869;50.432;8.680;2023-03-24T14:37:21;16.60;99.90
5689;DHT22;2869;50.432;8.680;2023-03-24T14:39:49;16.60;99.90
5689;DHT22;2869;50.432;8.680;2023-03-24T14:42:26;16.50;99.90
5689;DHT22;2869;50.432;8.680;2023-03-24T14:44:55;16.40;99.90
5689;DHT22;2869;50.432;8.680;2023-03-24T14:47:24;16.40;99.90
5689;DHT22;2869;50.432;8.680;2023-03-24T14:49:53;16.40;99.90
5689;DHT22;2869;50.432;8.680;2023-03-24T14:52:24;16.40;99.90
5689;DHT22;2869;50.432;8.680;2023-03-24T14:54:53;16.50;99.90
5689;DHT22;2869;50.432;8.680;2023-03-24T14:57:23;16.60;99.90
5689;DHT22;2869;50.432;8.680;2023-03-24T14:59:56;16.60;99.90
5689;DHT22;2869;50.432;8.680;2023-03-24T15:02:33;16.70;99.90
5689;DHT22;2869;50.432;8.680;2023-03-24T15:05:30;16.60;99.90
5689;DHT22;2869;50.432;8.680;2023-03-24T15:07:59;16.60;99.90
5689;DHT22;2869;50.432;8.680;2023-03-24T15:10:31;16.70;99.90
5689;DHT22;2869;50.432;8.680;2023-03-24T15:12:58;16.90;99.90
5689;DHT22;2869;50.432;8.680;2023-03-24T15:15:25;17.20;99.90
5689;DHT22;2869;50.432;8.680;2023-03-24T15:17:53;17.50;99.90
5689;DHT22;2869;50.432;8.680;2023-03-24T15:20:22;17.70;99.90
5689;DHT22;2869;50.432;8.680;2023-03-24T15:22:50;17.40;99.90
5689;DHT22;2869;50.432;8.680;2023-03-24T15:25:24;17.20;99.90
5689;DHT22;2869;50.432;8.680;2023-03-24T15:27:52;17.20;99.90
5689;DHT22;2869;50.432;8.680;2023-03-24T15:30:20;17.20;99.90
5689;DHT22;2869;50.432;8.680;2023-03-24T15:32:47;17.20;99.90
5689;DHT22;2869;50.432;8.680;2023-03-24T15:35:18;16.80;99.90
5689;DHT22;2869;50.432;8.680;2023-03-24T15:37:50;16.70;99.90
5689;DHT22;2869;50.432;8.680;2023-03-24T15:40:31;16.70;99.90
5689;DHT22;2869;50.432;8.680;2023-03-24T15:43:00;16.70;99.90
5689;DHT22;2869;50.432;8.680;2023-03-24T15:45:29;16.70;99.90
5689;DHT22;2869;50.432;8.680;2023-03-24T15:47:57;16.90;99.90
5689;DHT22;2869;50.432;8.680;2023-03-24T15:50:31;16.90;99.90
5689;DHT22;2869;50.432;8.680;2023-03-24T15:53:00;16.70;99.90
5689;DHT22;2869;50.432;8.680;2023-03-24T15:55:29;16.60;99.90
5689;DHT22;2869;50.432;8.680;2023-03-24T15:57:58;16.60;99.90
5689;DHT22;2869;50.432;8.680;2023-03-24T16:00:27;16.50;99.90
5689;DHT22;2869;50.432;8.680;2023-03-24T16:02:55;16.30;99.90
5689;DHT22;2869;50.432;8.680;2023-03-24T16:05:28;16.40;99.90
5689;DHT22;2869;50.432;8.680;2023-03-24T16:07:57;16.40;99.90
5689;DHT22;2869;50.432;8.680;2023-03-24T16:10:32;16.40;99.90
5689;DHT22;2869;50.432;8.680;2023-03-24T16:13:15;16.50;99.90
5689;DHT22;2869;50.432;8.680;2023-03-24T16:15:43;16.50;99.90
5689;DHT22;2869;50.432;8.680;2023-03-24T16:18:13;16.50;99.90
5689;DHT22;2869;50.432;8.680;2023-03-24T16:20:40;16.30;99.90
5689;DHT22;2869;50.432;8.680;2023-03-24T16:23:09;16.10;99.90
5689;DHT22;2869;50.432;8.680;2023-03-24T16:25:35;16.10;99.90
5689;DHT22;2869;50.432;8.680;2023-03-24T16:28:02;16.10;99.90
5689;DHT22;2869;50.432;8.680;2023-03-24T16:30:33;16.10;99.90
5689;DHT22;2869;50.432;8.680;2023-03-24T16:33:03;16.10;99.90
5689;DHT22;2869;50.432;8.680;2023-03-24T16:35:31;15.90;99.90
5689;DHT22;2869;50.432;8.680;2023-03-24T16:37:58;15.80;99.90